Time;durP1;ratioP1;P1;durP2;ratioP2;P2;SDS_P1;SDS_P2;PMS_P1;PMS_P2;Temp;Humidity;BMP_temperature;BMP_pressure;BME280_temperature;BME280_humidity;BME280_pressure;Samples;Min_cycle;Max_cycle;Signal;HPM_P1;HPM_P2
2022/10/02 00:01:53;;;;;;;14.43;11.63;;;;;;;18.99;100.00;98750.03;5132365;27;20224;-55
2022/10/02 00:04:26;;;;;;;14.13;11.52;;;;;;;18.80;100.00;98740.06;5132125;27;20208;-55
2022/10/02 00:07:00;;;;;;;17.92;11.65;;;;;;;18.84;100.00;98776.53;5131980;27;20707;-54
2022/10/02 00:09:32;;;;;;;13.35;11.60;;;;;;;18.71;100.00;98791.53;5131814;27;20277;-56
2022/10/02 00:12:01;;;;;;;14.10;12.60;;;;;;;18.62;100.00;98805.34;5131738;27;20202;-54
2022/10/02 00:14:33;;;;;;;16.65;12.30;;;;;;;18.55;100.00;98795.34;5131531;27;20197;-54
2022/10/02 00:17:01;;;;;;;14.90;12.18;;;;;;;18.60;100.00;98809.03;5130706;27;20221;-55
2022/10/02 00:19:28;;;;;;;12.85;10.98;;;;;;;18.49;100.00;98812.41;5131292;27;20194;-55
2022/10/02 00:22:17;;;;;;;14.50;10.90;;;;;;;18.56;100.00;98839.06;5131805;27;20194;-56
2022/10/02 00:24:51;;;;;;;13.52;10.50;;;;;;;18.57;100.00;98848.63;5131576;27;20266;-54
2022/10/02 00:27:38;;;;;;;12.27;11.00;;;;;;;18.56;100.00;98844.34;5131350;27;20197;-55
2022/10/02 00:30:06;;;;;;;13.13;10.85;;;;;;;18.53;100.00;98834.88;5130489;27;20194;-55
2022/10/02 00:32:40;;;;;;;16.23;10.27;;;;;;;18.48;100.00;98831.75;5131302;27;20198;-55
2022/10/02 00:35:43;;;;;;;10.63;9.32;;;;;;;18.55;100.00;98826.88;5131302;27;20196;-55
2022/10/02 00:38:25;;;;;;;12.13;10.63;;;;;;;18.54;100.00;98825.19;5077975;27;20221;-55
2022/10/02 00:41:36;;;;;;;10.03;9.13;;;;;;;18.48;100.00;98826.50;5131680;27;20216;-58
2022/10/02 00:44:23;;;;;;;10.93;9.02;;;;;;;18.46;100.00;98825.75;5083279;27;20201;-58
2022/10/02 00:46:59;;;;;;;10.23;9.10;;;;;;;18.48;100.00;98805.47;5131475;27;20676;-58
2022/10/02 00:49:48;;;;;;;12.82;8.73;;;;;;;18.59;100.00;98808.19;5131254;27;20197;-57
2022/10/02 00:52:33;;;;;;;9.65;7.97;;;;;;;18.60;100.00;98817.75;5131019;27;20201;-56
2022/10/02 00:55:20;;;;;;;10.30;7.88;;;;;;;18.66;100.00;98819.09;5130933;27;20693;-54
2022/10/02 00:58:00;;;;;;;8.32;7.55;;;;;;;18.66;100.00;98819.09;5130977;27;20261;-55
2022/10/02 01:00:27;;;;;;;10.00;8.20;;;;;;;18.70;100.00;98820.56;5131038;27;20600;-57
2022/10/02 01:03:08;;;;;;;8.93;7.25;;;;;;;18.79;100.00;98819.88;5131024;27;20197;-58
2022/10/02 01:05:36;;;;;;;9.63;7.32;;;;;;;18.77;100.00;98830.50;5130803;27;20220;-57
2022/10/02 01:08:04;;;;;;;8.35;7.07;;;;;;;18.83;100.00;98837.13;5131214;27;20662;-57
2022/10/02 01:10:33;;;;;;;8.05;7.25;;;;;;;18.91;100.00;98824.22;5130845;27;20671;-56
2022/10/02 01:13:00;;;;;;;8.35;6.88;;;;;;;18.93;100.00;98837.28;5130839;27;20194;-56
2022/10/02 01:15:30;;;;;;;9.32;6.75;;;;;;;18.96;100.00;98843.13;5130652;27;20633;-57
2022/10/02 01:17:58;;;;;;;10.30;6.82;;;;;;;18.99;100.00;98849.97;5130936;27;20214;-57
2022/10/02 01:20:31;;;;;;;7.50;6.90;;;;;;;19.01;100.00;98850.69;5131053;27;20206;-57
2022/10/02 01:23:05;;;;;;;7.35;6.70;;;;;;;18.98;100.00;98827.22;5130780;27;20578;-57
2022/10/02 01:25:33;;;;;;;8.40;6.82;;;;;;;19.05;100.00;98841.63;5130519;27;20198;-55
2022/10/02 01:28:01;;;;;;;7.47;6.80;;;;;;;19.01;100.00;98840.16;5130301;27;20225;-55
2022/10/02 01:30:30;;;;;;;7.82;7.10;;;;;;;18.95;100.00;98828.31;5130741;27;20216;-55
2022/10/02 01:32:59;;;;;;;8.35;6.65;;;;;;;18.87;100.00;98814.88;5130811;27;20573;-55
2022/10/02 01:35:30;;;;;;;7.75;6.88;;;;;;;18.97;100.00;98815.03;5130496;27;20190;-55
2022/10/02 01:37:59;;;;;;;7.72;7.03;;;;;;;18.97;100.00;98810.63;5130527;28;20218;-55
2022/10/02 01:40:28;;;;;;;7.30;6.60;;;;;;;18.95;100.00;98785.41;5130173;27;20692;-54
2022/10/02 01:43:00;;;;;;;7.35;6.68;;;;;;;19.11;100.00;98809.59;5130180;28;20198;-55
2022/10/02 01:45:40;;;;;;;8.30;7.03;;;;;;;19.03;100.00;98802.28;5130304;28;20200;-54
2022/10/02 01:48:13;;;;;;;7.65;7.05;;;;;;;19.04;100.00;98800.50;5130204;28;20198;-54
2022/10/02 01:50:52;;;;;;;8.77;6.68;;;;;;;19.06;100.00;98806.50;5130252;28;20558;-55
2022/10/02 01:53:24;;;;;;;9.15;7.28;;;;;;;19.08;100.00;98802.75;5130459;28;20245;-57
2022/10/02 01:55:59;;;;;;;7.10;6.18;;;;;;;19.14;100.00;98809.38;5130234;28;20231;-57
2022/10/02 01:58:39;;;;;;;8.48;7.65;;;;;;;19.15;100.00;98808.41;5130190;28;20217;-54
2022/10/02 02:01:17;;;;;;;6.97;6.30;;;;;;;19.05;100.00;98778.50;5130255;28;20761;-57
2022/10/02 02:03:53;;;;;;;5.82;5.28;;;;;;;19.27;100.00;98819.81;5130183;28;20680;-57
2022/10/02 02:06:29;;;;;;;7.05;6.07;;;;;;;19.28;100.00;98809.19;5130165;28;20674;-55
2022/10/02 02:09:07;;;;;;;6.20;5.57;;;;;;;19.32;100.00;98817.66;5130371;28;20186;-54
2022/10/02 02:11:39;;;;;;;5.97;5.47;;;;;;;19.33;100.00;98824.59;5129960;28;20204;-55
2022/10/02 02:14:15;;;;;;;7.25;5.43;;;;;;;19.33;100.00;98822.81;5130052;28;20197;-54
2022/10/02 02:16:44;;;;;;;7.35;5.60;;;;;;;19.34;100.00;98831.53;5129845;28;20202;-55
2022/10/02 02:19:20;;;;;;;6.07;5.20;;;;;;;19.27;100.00;98815.41;5130017;28;20218;-54
2022/10/02 02:21:52;;;;;;;5.95;5.45;;;;;;;19.35;100.00;98828.81;5129954;28;20198;-58
2022/10/02 02:24:25;;;;;;;5.35;5.03;;;;;;;19.38;100.00;98833.84;5129998;28;20599;-57
2022/10/02 02:26:58;;;;;;;6.05;5.25;;;;;;;19.33;100.00;98835.97;5129939;28;20200;-56
2022/10/02 02:29:30;;;;;;;6.95;4.80;;;;;;;19.31;100.00;98850.19;5129750;28;20313;-57
2022/10/02 02:32:00;;;;;;;5.45;4.95;;;;;;;19.35;100.00;98839.31;5130005;28;20194;-57
2022/10/02 02:34:31;;;;;;;8.80;5.05;;;;;;;19.34;100.00;98848.16;5129683;28;20204;-56
2022/10/02 02:37:04;;;;;;;6.60;5.05;;;;;;;19.26;100.00;98849.72;5129643;28;20198;-57
2022/10/02 02:39:37;;;;;;;5.63;5.00;;;;;;;19.36;100.00;98856.78;5130034;28;20636;-56
2022/10/02 02:42:08;;;;;;;4.93;4.57;;;;;;;19.38;100.00;98860.16;5130090;28;20729;-57
2022/10/02 02:44:41;;;;;;;5.40;4.90;;;;;;;19.45;100.00;98874.53;5129764;28;20198;-55
2022/10/02 02:47:14;;;;;;;5.20;4.80;;;;;;;19.45;100.00;98881.56;5129592;28;20190;-54
2022/10/02 02:49:50;;;;;;;5.35;4.47;;;;;;;19.46;100.00;98884.09;5129714;28;20285;-54
2022/10/02 02:52:24;;;;;;;4.80;4.40;;;;;;;19.44;100.00;98893.91;5130333;27;20198;-54
2022/10/02 02:54:56;;;;;;;7.75;4.30;;;;;;;19.47;100.00;98900.72;5133418;27;20202;-54
2022/10/02 02:57:29;;;;;;;4.53;4.20;;;;;;;19.38;100.00;98904.91;5133287;27;20681;-55
2022/10/02 03:00:01;;;;;;;7.03;4.00;;;;;;;19.43;100.00;98901.91;5133178;27;20198;-54
2022/10/02 03:02:28;;;;;;;8.30;4.10;;;;;;;19.41;100.00;98912.53;5133283;27;20247;-54
2022/10/02 03:04:54;;;;;;;5.28;3.97;;;;;;;19.43;100.00;98929.06;5132983;27;20350;-54
2022/10/02 03:07:21;;;;;;;4.55;4.13;;;;;;;19.37;100.00;98932.16;5132914;27;20198;-54
2022/10/02 03:09:56;;;;;;;6.57;4.13;;;;;;;19.36;100.00;98943.63;5132997;27;20288;-55
2022/10/02 03:12:35;;;;;;;6.85;4.07;;;;;;;19.35;100.00;98944.59;5133320;27;20242;-55
2022/10/02 03:15:20;;;;;;;9.60;3.97;;;;;;;19.32;100.00;98943.97;5133039;27;20529;-55
2022/10/02 03:18:03;;;;;;;4.20;3.90;;;;;;;19.28;100.00;98951.25;5132800;27;20222;-55
2022/10/02 03:20:41;;;;;;;4.40;3.72;;;;;;;19.22;100.00;98964.84;5132764;27;20197;-56
2022/10/02 03:23:17;;;;;;;7.93;4.25;;;;;;;19.19;100.00;98957.16;5133261;27;20194;-57
2022/10/02 03:25:51;;;;;;;4.75;4.35;;;;;;;19.14;100.00;98969.84;5132635;27;20200;-55
2022/10/02 03:28:25;;;;;;;4.95;4.55;;;;;;;19.11;100.00;98951.63;5132726;27;20713;-55
2022/10/02 03:30:55;;;;;;;5.55;4.35;;;;;;;19.09;100.00;98956.16;5132718;27;20198;-57
2022/10/02 03:33:23;;;;;;;4.43;4.13;;;;;;;19.12;100.00;98961.22;5132378;27;20756;-57
2022/10/02 03:35:51;;;;;;;4.38;4.15;;;;;;;19.15;100.00;98963.63;5132543;27;20194;-56
2022/10/02 03:38:19;;;;;;;4.85;4.45;;;;;;;19.07;100.00;98971.25;5132674;27;20222;-57
2022/10/02 03:40:45;;;;;;;5.60;4.25;;;;;;;19.04;100.00;98976.72;5132481;27;20619;-56
2022/10/02 03:43:20;;;;;;;6.20;4.03;;;;;;;19.03;100.00;98980.28;5132453;27;20194;-55
2022/10/02 03:45:47;;;;;;;4.65;4.35;;;;;;;19.02;100.00;98986.50;5132699;27;20575;-53
2022/10/02 03:48:16;;;;;;;4.97;4.50;;;;;;;19.04;100.00;98989.88;5132270;27;20219;-57
2022/10/02 03:50:43;;;;;;;3.78;3.58;;;;;;;19.04;100.00;98990.72;5131890;27;20198;-56
2022/10/02 03:53:14;;;;;;;7.35;4.28;;;;;;;19.10;100.00;99000.78;5132432;27;20205;-56
2022/10/02 03:55:46;;;;;;;3.58;3.38;;;;;;;19.13;100.00;98987.41;5132556;27;20200;-57
2022/10/02 03:58:16;;;;;;;5.15;4.65;;;;;;;19.13;100.00;98987.41;5131930;27;20231;-56
2022/10/02 04:00:52;;;;;;;3.45;3.17;;;;;;;19.19;100.00;98994.00;5132054;27;20197;-55
2022/10/02 04:03:25;;;;;;;3.38;3.08;;;;;;;19.05;100.00;98975.78;5131977;27;20284;-56
2022/10/02 04:05:59;;;;;;;3.05;2.78;;;;;;;19.18;100.00;99003.72;5132023;27;20197;-56
2022/10/02 04:08:30;;;;;;;3.55;2.72;;;;;;;19.16;100.00;99002.16;5131808;27;20229;-56
2022/10/02 04:11:03;;;;;;;3.17;2.60;;;;;;;19.16;100.00;99007.41;5132141;27;20559;-56
2022/10/02 04:13:35;;;;;;;4.72;2.53;;;;;;;19.15;100.00;99011.81;5131695;27;20206;-57
2022/10/02 04:16:10;;;;;;;2.72;2.55;;;;;;;19.15;100.00;99005.72;5131620;27;20843;-54
2022/10/02 04:18:46;;;;;;;4.72;2.95;;;;;;;19.11;100.00;99009.50;5131418;27;20217;-54
2022/10/02 04:21:27;;;;;;;2.78;2.58;;;;;;;19.05;100.00;99008.19;5131611;27;20204;-54
2022/10/02 04:24:01;;;;;;;2.45;2.30;;;;;;;19.03;100.00;99012.69;5131658;27;20276;-55
2022/10/02 04:26:33;;;;;;;2.30;2.20;;;;;;;19.00;100.00;99023.44;5131525;27;20581;-55
2022/10/02 04:29:11;;;;;;;2.40;2.20;;;;;;;19.05;100.00;99025.75;5130406;27;20213;-54
2022/10/02 04:31:38;;;;;;;2.10;2.00;;;;;;;19.01;100.00;99032.16;5110846;28;20281;-54
2022/10/02 04:34:12;;;;;;;4.90;2.00;;;;;;;18.97;100.00;99036.78;5111060;28;20662;-57
2022/10/02 04:36:49;;;;;;;1.90;1.80;;;;;;;18.96;100.00;99047.44;5124009;27;20194;-58
2022/10/02 04:39:46;;;;;;;3.30;1.77;;;;;;;18.93;100.00;99052.91;5131228;27;20232;-58
2022/10/02 04:42:27;;;;;;;3.65;1.60;;;;;;;18.83;100.00;99052.72;5131482;27;20194;-56
2022/10/02 04:45:09;;;;;;;1.80;1.70;;;;;;;18.81;100.00;99044.94;5131431;27;20284;-56
2022/10/02 04:48:09;;;;;;;1.92;1.83;;;;;;;18.89;100.00;99051.44;5130827;27;20187;-55
2022/10/02 04:50:49;;;;;;;3.15;1.73;;;;;;;18.90;100.00;99068.91;5131012;27;20194;-57
2022/10/02 04:53:29;;;;;;;3.15;1.88;;;;;;;18.90;100.00;99071.53;5131219;27;20588;-57
2022/10/02 04:56:21;;;;;;;2.38;2.00;;;;;;;18.89;100.00;99065.44;5131121;27;20668;-56
2022/10/02 04:59:11;;;;;;;2.67;2.58;;;;;;;18.94;100.00;99076.47;5130685;27;20218;-57
2022/10/02 05:01:51;;;;;;;3.50;2.80;;;;;;;19.01;100.00;99071.63;5127504;27;20223;-56
2022/10/02 05:04:33;;;;;;;5.82;3.20;;;;;;;19.07;100.00;99074.69;5130862;27;20198;-56
2022/10/02 05:07:21;;;;;;;3.38;3.08;;;;;;;19.21;100.00;99076.31;5130595;27;20285;-57
2022/10/02 05:09:57;;;;;;;4.68;4.00;;;;;;;19.06;100.00;99059.84;5130777;27;20210;-57
2022/10/02 05:12:42;;;;;;;5.88;3.80;;;;;;;19.33;100.00;99093.00;5129555;27;20198;-57
2022/10/02 05:15:38;;;;;;;3.75;3.50;;;;;;;19.97;100.00;99104.19;5126487;27;20311;-56
2022/10/02 05:18:35;;;;;;;4.30;3.50;;;;;;;21.56;100.00;99118.22;5124114;27;20194;-57
2022/10/02 05:21:17;;;;;;;3.30;3.10;;;;;;;22.91;93.61;99113.22;5108456;27;20196;-57
2022/10/02 05:23:59;;;;;;;5.03;3.22;;;;;;;24.07;88.33;99138.25;5126509;27;20197;-58
2022/10/02 05:26:58;;;;;;;3.38;3.13;;;;;;;24.57;85.25;99138.97;5126876;27;20284;-57
2022/10/02 05:29:37;;;;;;;3.28;2.90;;;;;;;24.15;86.75;99144.50;5126377;27;20464;-55
2022/10/02 05:32:25;;;;;;;2.88;2.70;;;;;;;23.91;85.79;99154.72;5126632;27;20657;-55
2022/10/02 05:35:10;;;;;;;3.78;3.35;;;;;;;24.16;84.46;99158.63;5112035;27;20196;-55
2022/10/02 05:37:51;;;;;;;3.10;2.90;;;;;;;24.89;80.51;99171.31;5129992;27;20276;-55
2022/10/02 05:40:26;;;;;;;3.60;3.10;;;;;;;26.38;74.17;99188.84;5130182;28;20732;-54
2022/10/02 05:43:03;;;;;;;5.10;2.92;;;;;;;27.54;67.01;99197.47;5130576;28;20532;-55
2022/10/02 05:45:35;;;;;;;4.30;3.15;;;;;;;28.29;62.01;99206.44;5130216;28;20280;-54
2022/10/02 05:48:12;;;;;;;4.30;3.10;;;;;;;29.22;59.52;99205.94;5130500;28;20193;-54
2022/10/02 05:50:41;;;;;;;4.13;3.05;;;;;;;29.92;57.16;99226.59;5130057;28;20189;-55
2022/10/02 05:53:18;;;;;;;3.72;3.40;;;;;;;30.46;54.27;99222.16;5129707;28;20194;-56
2022/10/02 05:55:53;;;;;;;2.65;2.50;;;;;;;30.79;52.36;99205.84;5130529;28;20848;-56
2022/10/02 05:58:25;;;;;;;3.22;2.92;;;;;;;31.04;51.75;99218.81;5130062;28;20235;-55
2022/10/02 06:00:59;;;;;;;3.92;3.63;;;;;;;30.76;51.79;99227.63;5130175;28;20196;-55
2022/10/02 06:03:33;;;;;;;5.65;3.00;;;;;;;31.14;50.54;99233.88;5130003;28;20210;-57
2022/10/02 06:06:07;;;;;;;2.80;2.67;;;;;;;31.20;49.58;99233.13;5130459;28;20216;-56
2022/10/02 06:08:41;;;;;;;4.70;2.53;;;;;;;31.73;48.13;99227.50;5130024;28;20204;-66
2022/10/02 06:11:15;;;;;;;3.67;3.38;;;;;;;31.77;48.07;99222.59;5130173;28;20198;-66
2022/10/02 06:13:47;;;;;;;5.28;2.58;;;;;;;31.41;48.10;99227.88;5129840;28;20197;-66
2022/10/02 06:16:19;;;;;;;3.00;2.80;;;;;;;31.50;47.37;99234.78;5130653;28;20716;-65
2022/10/02 06:18:51;;;;;;;7.18;2.50;;;;;;;31.15;47.40;99227.50;5130335;28;20661;-56
2022/10/02 06:21:29;;;;;;;2.45;2.25;;;;;;;31.50;47.59;99242.00;5130128;28;20205;-56
2022/10/02 06:24:02;;;;;;;2.95;2.63;;;;;;;31.66;46.55;99239.19;5129976;28;20700;-54
2022/10/02 06:26:40;;;;;;;2.70;2.50;;;;;;;31.84;45.44;99249.53;5129866;27;20313;-56
2022/10/02 06:29:13;;;;;;;5.03;2.20;;;;;;;32.22;44.60;99248.38;5133018;27;20680;-57
2022/10/02 06:31:46;;;;;;;2.30;2.10;;;;;;;32.52;43.43;99262.53;5133732;27;20564;-55
2022/10/02 06:34:15;;;;;;;2.80;2.58;;;;;;;33.11;41.95;99249.69;5133333;27;20186;-53
2022/10/02 06:36:53;;;;;;;3.33;2.17;;;;;;;33.17;41.45;99248.91;5133336;27;20684;-60
2022/10/02 06:39:42;;;;;;;2.95;2.75;;;;;;;33.21;40.85;99251.19;5133665;27;20214;-60
2022/10/02 06:42:22;;;;;;;4.57;2.50;;;;;;;33.91;39.46;99244.84;5134041;27;20304;-59
2022/10/02 06:45:02;;;;;;;3.33;1.80;;;;;;;34.12;39.11;99252.78;5133643;27;20285;-59
2022/10/02 06:47:47;;;;;;;4.50;2.40;;;;;;;34.17;38.32;99266.50;5133725;27;20605;-60
2022/10/02 06:50:40;;;;;;;5.20;2.25;;;;;;;34.35;37.97;99258.69;5133557;27;20743;-60
2022/10/02 06:53:15;;;;;;;2.53;2.33;;;;;;;33.56;39.58;99252.91;5133344;27;20288;-59
2022/10/02 06:55:51;;;;;;;2.28;2.08;;;;;;;34.50;37.55;99272.00;5133588;27;20649;-60
2022/10/02 06:58:47;;;;;;;3.92;2.72;;;;;;;35.29;35.90;99283.75;5133538;27;20198;-61
2022/10/02 07:01:25;;;;;;;2.08;1.90;;;;;;;36.19;34.06;99295.59;5132874;27;20194;-60
2022/10/02 07:04:06;;;;;;;3.35;2.58;;;;;;;36.45;33.67;99305.50;5133566;27;20691;-53
2022/10/02 07:06:45;;;;;;;2.70;2.50;;;;;;;34.67;36.22;99305.63;5133212;27;20558;-55
2022/10/02 07:09:45;;;;;;;3.65;3.40;;;;;;;34.80;36.03;99315.66;5133030;27;20229;-55
2022/10/02 07:12:30;;;;;;;2.25;2.15;;;;;;;33.56;37.51;99313.97;5132905;27;20198;-61
2022/10/02 07:15:24;;;;;;;2.30;2.20;;;;;;;31.27;41.94;99312.66;5132912;27;20200;-61
2022/10/02 07:17:58;;;;;;;2.30;2.20;;;;;;;29.14;47.32;99306.66;5133084;27;20201;-60
2022/10/02 07:20:44;;;;;;;3.28;2.90;;;;;;;27.42;50.49;99311.53;5128714;27;20312;-55
2022/10/02 07:23:43;;;;;;;3.00;2.80;;;;;;;26.53;52.98;99310.72;5111700;28;20194;-54
2022/10/02 07:26:30;;;;;;;2.35;2.15;;;;;;;25.69;55.94;99321.47;5111901;28;20202;-55
2022/10/02 07:29:08;;;;;;;5.57;3.03;;;;;;;25.23;57.23;99314.28;5111589;28;20229;-54
2022/10/02 07:31:49;;;;;;;2.70;2.60;;;;;;;24.81;58.69;99319.03;5111805;28;20590;-54
2022/10/02 07:34:34;;;;;;;3.03;2.80;;;;;;;24.46;58.58;99323.03;5111739;28;20202;-55
2022/10/02 07:37:15;;;;;;;5.40;2.90;;;;;;;24.33;59.40;99310.97;5111253;28;20561;-55
2022/10/02 07:40:08;;;;;;;5.18;4.65;;;;;;;24.00;60.48;99304.16;5111031;28;20305;-54
2022/10/02 07:42:52;;;;;;;3.25;3.00;;;;;;;23.70;61.05;99300.53;5110949;28;20234;-55
2022/10/02 07:45:27;;;;;;;3.67;3.38;;;;;;;23.62;61.47;99292.41;5110175;28;20266;-54
2022/10/02 07:48:27;;;;;;;5.43;4.03;;;;;;;23.53;62.94;99290.56;5111598;28;20301;-54
2022/10/02 07:51:03;;;;;;;8.63;2.90;;;;;;;23.52;62.82;99272.97;5102532;27;20234;-59
2022/10/02 07:53:39;;;;;;;3.58;3.28;;;;;;;23.35;62.33;99278.88;5132082;27;20193;-59
2022/10/02 07:56:10;;;;;;;3.78;3.47;;;;;;;23.35;61.66;99278.88;5132253;27;20286;-59
2022/10/02 07:58:41;;;;;;;5.18;3.22;;;;;;;23.25;62.85;99273.47;5131811;27;20285;-59
2022/10/02 08:01:13;;;;;;;3.83;3.55;;;;;;;23.20;61.92;99285.44;5131846;27;20217;-59
2022/10/02 08:03:48;;;;;;;8.25;3.67;;;;;;;23.25;63.01;99294.66;5131855;27;20200;-60
2022/10/02 08:06:17;;;;;;;3.70;3.38;;;;;;;23.28;62.48;99318.25;5131739;27;20283;-60
2022/10/02 08:08:49;;;;;;;5.80;3.15;;;;;;;23.28;61.25;99317.41;5132106;27;20314;-59
2022/10/02 08:11:21;;;;;;;3.53;2.70;;;;;;;23.28;60.91;99328.00;5131773;27;20284;-58
2022/10/02 08:13:55;;;;;;;3.38;3.05;;;;;;;23.26;61.37;99335.22;5131687;27;20576;-59
2022/10/02 08:16:26;;;;;;;3.05;2.88;;;;;;;23.29;59.81;99335.81;5131750;27;20213;-59
2022/10/02 08:19:01;;;;;;;3.17;2.85;;;;;;;23.34;59.51;99340.75;5132027;27;20665;-59
2022/10/02 08:21:32;;;;;;;3.10;2.70;;;;;;;23.35;59.32;99342.44;5131498;27;20288;-60
2022/10/02 08:24:05;;;;;;;5.20;2.80;;;;;;;23.25;60.01;99333.59;5131610;27;20277;-59
2022/10/02 08:26:36;;;;;;;3.33;3.13;;;;;;;23.34;59.34;99346.03;5131534;27;20190;-59
2022/10/02 08:29:10;;;;;;;3.60;3.40;;;;;;;23.40;59.00;99332.28;5131090;27;20232;-59
2022/10/02 08:31:37;;;;;;;5.40;3.65;;;;;;;23.50;59.66;99335.84;5130300;27;20193;-58
2022/10/02 08:34:13;;;;;;;3.72;3.45;;;;;;;23.52;58.63;99353.28;5131427;27;20211;-59
2022/10/02 08:37:19;;;;;;;3.60;3.30;;;;;;;23.63;58.80;99360.34;5130320;27;20194;-58
2022/10/02 08:40:27;;;;;;;13.48;9.90;;;;;;;23.71;58.51;99347.25;5110422;27;20251;-59
2022/10/02 08:43:31;;;;;;;4.72;3.58;;;;;;;23.59;57.95;99350.97;5068922;28;20195;-59
2022/10/02 08:46:36;;;;;;;4.75;3.10;;;;;;;23.64;56.99;99361.19;5110643;28;20198;-59
2022/10/02 08:49:48;;;;;;;3.17;2.90;;;;;;;23.68;56.94;99350.19;5102293;28;20588;-61
2022/10/02 08:52:58;;;;;;;3.15;2.95;;;;;;;23.79;59.34;99358.06;5007827;28;20640;-52
2022/10/02 08:55:49;;;;;;;5.80;3.45;;;;;;;23.77;57.00;99338.81;5110598;28;20198;-55
2022/10/02 08:58:51;;;;;;;2.90;2.80;;;;;;;23.99;56.30;99347.53;5110223;28;20332;-55
2022/10/02 09:01:52;;;;;;;3.72;2.63;;;;;;;23.96;56.02;99346.00;5058989;28;20257;-56
2022/10/02 09:04:59;;;;;;;3.05;2.85;;;;;;;23.92;56.16;99336.66;5074135;28;20223;-56
2022/10/02 09:08:09;;;;;;;8.75;2.80;;;;;;;23.84;54.31;99342.59;5117064;27;20204;-57
2022/10/02 09:11:17;;;;;;;2.85;2.55;;;;;;;23.82;54.05;99336.56;5128652;27;20329;-57
2022/10/02 09:14:33;;;;;;;4.75;2.65;;;;;;;23.77;53.29;99322.91;5047000;28;20246;-56
2022/10/02 09:17:15;;;;;;;3.30;2.40;;;;;;;23.73;52.25;99320.63;5130027;27;20301;-56
2022/10/02 09:19:55;;;;;;;2.70;2.50;;;;;;;23.71;53.09;99311.97;5129939;27;20206;-57
2022/10/02 09:22:54;;;;;;;3.83;2.30;;;;;;;23.75;53.80;99311.59;5109880;28;20202;-56
2022/10/02 09:25:36;;;;;;;2.22;2.13;;;;;;;23.78;52.61;99329.88;5125896;27;20198;-55
2022/10/02 09:28:41;;;;;;;2.40;2.30;;;;;;;23.80;52.61;99319.16;5128566;27;20236;-57
2022/10/02 09:31:40;;;;;;;2.17;2.08;;;;;;;23.84;53.08;99315.25;5117930;27;20204;-57
2022/10/02 09:34:46;;;;;;;3.45;2.55;;;;;;;23.93;53.09;99309.13;5130521;27;20190;-57
2022/10/02 09:37:38;;;;;;;5.20;2.80;;;;;;;23.89;53.81;99299.78;5100331;27;20193;-57
2022/10/02 09:40:37;;;;;;;3.65;2.80;;;;;;;24.00;53.36;99304.16;5085161;28;20221;-57
2022/10/02 09:43:42;;;;;;;2.85;2.20;;;;;;;24.01;52.32;99298.72;5130123;28;20228;-57
2022/10/02 09:46:51;;;;;;;2.45;2.35;;;;;;;23.99;51.29;99292.72;5130034;28;20224;-56
2022/10/02 09:49:47;;;;;;;1.92;1.80;;;;;;;24.01;50.33;99295.22;5130389;28;20765;-55
2022/10/02 09:52:44;;;;;;;2.25;2.15;;;;;;;24.14;51.88;99296.69;5130263;28;20645;-54
2022/10/02 09:55:58;;;;;;;2.88;2.38;;;;;;;24.21;50.87;99279.22;5130386;28;20200;-55
2022/10/02 09:59:00;;;;;;;6.30;1.85;;;;;;;24.31;46.42;99294.34;5130264;28;20216;-54
2022/10/02 10:01:42;;;;;;;1.77;1.60;;;;;;;24.27;45.84;99291.13;5130873;27;20217;-55
2022/10/02 10:04:53;;;;;;;2.40;1.70;;;;;;;24.33;48.28;99285.28;5134827;27;20670;-53
2022/10/02 10:08:10;;;;;;;2.40;2.20;;;;;;;24.33;47.82;99284.47;5134446;27;20691;-54
2022/10/02 10:11:08;;;;;;;2.03;1.92;;;;;;;24.39;47.40;99292.69;5128588;27;20199;-55
2022/10/02 10:14:08;;;;;;;2.17;1.90;;;;;;;24.43;49.28;99288.78;5134178;27;20632;-54
2022/10/02 10:17:07;;;;;;;2.08;1.98;;;;;;;24.51;49.27;99286.28;5133657;27;20194;-54
2022/10/02 10:20:07;;;;;;;3.30;1.88;;;;;;;24.46;48.06;99290.34;5133361;27;20295;-54
2022/10/02 10:23:05;;;;;;;2.40;2.20;;;;;;;24.53;48.75;99284.34;5133982;27;20659;-54
2022/10/02 10:26:03;;;;;;;3.40;2.10;;;;;;;24.58;49.22;99297.22;5133856;27;20284;-53
2022/10/02 10:29:09;;;;;;;2.15;2.05;;;;;;;24.50;49.55;99312.97;5133677;27;20673;-54
2022/10/02 10:32:18;;;;;;;2.22;1.90;;;;;;;24.51;48.80;99315.47;5133592;27;20662;-53
2022/10/02 10:35:09;;;;;;;2.17;2.00;;;;;;;24.56;48.51;99320.38;5112203;27;20201;-54
2022/10/02 10:40:52;;;;;;;2.00;1.90;;;;;;;24.58;48.16;99319.28;5133471;27;20719;-54
2022/10/02 10:43:59;;;;;;;2.40;2.10;;;;;;;24.73;47.89;99324.16;5133693;27;20281;-54
2022/10/02 10:46:48;;;;;;;2.45;1.75;;;;;;;24.72;47.65;99331.28;5133919;27;20200;-54
2022/10/02 10:49:37;;;;;;;4.43;1.95;;;;;;;24.65;46.55;99324.03;5133476;27;20194;-54
2022/10/02 10:52:14;;;;;;;3.38;2.10;;;;;;;24.51;46.19;99341.16;5123631;27;20206;-54
2022/10/02 10:55:02;;;;;;;1.65;1.58;;;;;;;24.45;45.96;99329.31;5112118;28;20685;-54
2022/10/02 10:57:50;;;;;;;1.60;1.52;;;;;;;24.38;46.37;99336.13;5112608;28;20194;-55
2022/10/02 11:00:23;;;;;;;4.60;1.92;;;;;;;24.17;45.90;99293.72;5112705;28;20214;-55
2022/10/02 11:03:37;;;;;;;3.95;1.60;;;;;;;24.31;44.47;99335.00;5112502;28;20203;-55
2022/10/02 11:06:49;;;;;;;3.70;1.17;;;;;;;24.48;43.53;99330.84;5112810;28;20578;-55
2022/10/02 11:09:52;;;;;;;1.58;1.58;;;;;;;24.53;44.06;99326.78;5112372;28;20201;-54
2022/10/02 11:12:46;;;;;;;1.58;1.48;;;;;;;24.52;43.56;99326.94;5112676;28;20216;-54
2022/10/02 11:15:30;;;;;;;1.52;1.50;;;;;;;24.52;43.53;99325.13;5131851;27;20194;-54
2022/10/02 11:18:13;;;;;;;1.60;1.50;;;;;;;24.42;43.80;99340.19;5131994;27;20198;-54
2022/10/02 11:21:10;;;;;;;2.30;1.40;;;;;;;24.35;43.68;99333.75;5132454;27;20224;-55
2022/10/02 11:24:15;;;;;;;1.50;1.40;;;;;;;24.24;43.78;99325.91;5126318;27;20255;-55
2022/10/02 11:27:04;;;;;;;3.75;1.30;;;;;;;24.35;43.58;99336.41;5108077;27;20669;-55
2022/10/02 11:30:01;;;;;;;4.05;1.58;;;;;;;24.32;42.78;99339.31;5132488;27;20229;-55
2022/10/02 11:33:19;;;;;;;3.38;1.52;;;;;;;24.31;43.24;99321.72;5132470;27;20193;-54
2022/10/02 11:36:08;;;;;;;4.10;1.63;;;;;;;24.19;43.93;99328.06;5132140;27;20489;-55
2022/10/02 11:39:03;;;;;;;2.20;1.30;;;;;;;24.19;43.99;99328.06;5131560;27;20209;-54
2022/10/02 11:41:58;;;;;;;6.07;1.55;;;;;;;24.11;43.24;99319.97;5115254;27;20317;-55
2022/10/02 11:44:44;;;;;;;3.30;1.35;;;;;;;24.07;42.85;99321.19;5132271;27;20190;-54
2022/10/02 11:47:59;;;;;;;1.33;1.33;;;;;;;24.09;43.44;99313.94;5130810;27;20200;-56
2022/10/02 11:51:10;;;;;;;4.00;1.50;;;;;;;24.08;43.47;99325.53;5067769;28;20204;-55
2022/10/02 11:53:56;;;;;;;3.88;1.60;;;;;;;24.08;43.71;99309.63;5068624;28;20712;-55
2022/10/02 11:56:40;;;;;;;1.65;1.42;;;;;;;24.14;43.79;99309.09;5125164;27;20201;-54
2022/10/02 11:59:21;;;;;;;3.08;1.35;;;;;;;24.11;43.18;99310.19;5132478;27;20190;-54
2022/10/02 12:02:00;;;;;;;4.50;1.65;;;;;;;24.10;43.41;99303.22;5131464;27;20229;-55
2022/10/02 12:04:39;;;;;;;3.40;1.15;;;;;;;24.13;43.10;99302.09;5131830;27;20194;-55
2022/10/02 12:07:20;;;;;;;2.08;1.40;;;;;;;24.12;43.34;99301.28;5131783;27;20297;-55
2022/10/02 12:10:01;;;;;;;1.30;1.20;;;;;;;24.11;43.72;99299.59;5131675;27;20198;-55
2022/10/02 12:12:44;;;;;;;3.47;1.25;;;;;;;24.14;43.49;99306.44;5131585;27;20200;-55
2022/10/02 12:15:23;;;;;;;4.90;1.58;;;;;;;24.12;42.93;99305.72;5131682;27;20201;-55
2022/10/02 12:18:01;;;;;;;2.10;2.00;;;;;;;24.06;42.82;99304.44;5131401;27;20280;-55
2022/10/02 12:27:08;;;;;;;2.55;1.42;;;;;;;24.02;42.26;99311.00;5099498;27;20194;-54
2022/10/02 12:29:46;;;;;;;2.30;1.10;;;;;;;23.98;42.38;99306.09;5131490;27;20626;-55
2022/10/02 12:32:27;;;;;;;5.88;1.35;;;;;;;23.98;42.39;99311.41;5131833;27;20211;-55
2022/10/02 12:35:08;;;;;;;1.15;1.15;;;;;;;24.03;42.47;99323.28;5131532;27;20201;-55
2022/10/02 12:37:41;;;;;;;2.38;1.10;;;;;;;23.94;43.26;99305.50;5131342;27;20584;-54
2022/10/02 12:40:20;;;;;;;1.67;1.33;;;;;;;24.05;43.28;99312.53;5131069;27;20208;-55
2022/10/02 12:43:16;;;;;;;1.38;1.17;;;;;;;24.10;42.73;99312.97;5131408;27;20197;-54
2022/10/02 12:46:13;;;;;;;0.95;0.95;;;;;;;24.17;42.83;99316.75;5097318;27;20198;-55
2022/10/02 12:49:11;;;;;;;1.65;1.25;;;;;;;24.25;42.54;99309.03;5130430;27;20208;-55